sensor_id;sensor_type;location;lat;lon;timestamp;P1;durP1;ratioP1;P2;durP2;ratioP2
58581;SDS011;44361;51.476;5.700;2023-05-07T00:01:39;19.25;;;11.10;;
58581;SDS011;44361;51.476;5.700;2023-05-07T00:04:04;15.13;;;9.88;;
58581;SDS011;44361;51.476;5.700;2023-05-07T00:06:30;18.27;;;11.38;;
58581;SDS011;44361;51.476;5.700;2023-05-07T00:08:56;18.42;;;11.60;;
58581;SDS011;44361;51.476;5.700;2023-05-07T00:11:24;16.80;;;10.70;;
58581;SDS011;44361;51.476;5.700;2023-05-07T00:13:50;16.20;;;10.48;;
58581;SDS011;44361;51.476;5.700;2023-05-07T00:16:16;12.80;;;9.68;;
58581;SDS011;44361;51.476;5.700;2023-05-07T00:18:41;16.90;;;10.25;;
58581;SDS011;44361;51.476;5.700;2023-05-07T00:21:07;14.65;;;9.57;;
58581;SDS011;44361;51.476;5.700;2023-05-07T00:23:32;17.23;;;11.30;;
58581;SDS011;44361;51.476;5.700;2023-05-07T00:25:58;16.15;;;10.95;;
58581;SDS011;44361;51.476;5.700;2023-05-07T00:28:23;15.82;;;11.05;;
58581;SDS011;44361;51.476;5.700;2023-05-07T00:30:49;21.40;;;11.77;;
58581;SDS011;44361;51.476;5.700;2023-05-07T00:33:14;21.73;;;11.65;;
58581;SDS011;44361;51.476;5.700;2023-05-07T00:35:40;18.83;;;11.85;;
58581;SDS011;44361;51.476;5.700;2023-05-07T00:38:06;17.40;;;11.57;;
58581;SDS011;44361;51.476;5.700;2023-05-07T00:40:32;17.40;;;12.48;;
58581;SDS011;44361;51.476;5.700;2023-05-07T00:42:57;16.83;;;11.75;;
58581;SDS011;44361;51.476;5.700;2023-05-07T00:45:28;21.65;;;14.23;;
58581;SDS011;44361;51.476;5.700;2023-05-07T00:47:55;24.98;;;13.27;;
58581;SDS011;44361;51.476;5.700;2023-05-07T00:50:22;17.35;;;11.93;;
58581;SDS011;44361;51.476;5.700;2023-05-07T00:52:47;19.25;;;12.98;;
58581;SDS011;44361;51.476;5.700;2023-05-07T00:55:13;21.27;;;13.18;;
58581;SDS011;44361;51.476;5.700;2023-05-07T00:57:40;20.35;;;12.65;;
58581;SDS011;44361;51.476;5.700;2023-05-07T01:00:07;20.77;;;12.15;;
58581;SDS011;44361;51.476;5.700;2023-05-07T01:02:34;22.67;;;13.25;;
58581;SDS011;44361;51.476;5.700;2023-05-07T01:05:04;16.80;;;12.77;;
58581;SDS011;44361;51.476;5.700;2023-05-07T01:07:32;19.33;;;13.60;;
58581;SDS011;44361;51.476;5.700;2023-05-07T01:09:59;21.95;;;14.13;;
58581;SDS011;44361;51.476;5.700;2023-05-07T01:12:25;20.98;;;14.40;;
58581;SDS011;44361;51.476;5.700;2023-05-07T01:14:52;23.02;;;14.52;;
58581;SDS011;44361;51.476;5.700;2023-05-07T01:17:18;22.88;;;15.05;;
58581;SDS011;44361;51.476;5.700;2023-05-07T01:19:44;21.77;;;13.90;;
58581;SDS011;44361;51.476;5.700;2023-05-07T01:22:10;22.75;;;13.95;;
58581;SDS011;44361;51.476;5.700;2023-05-07T01:24:39;19.23;;;13.68;;
58581;SDS011;44361;51.476;5.700;2023-05-07T01:27:05;24.27;;;14.45;;
58581;SDS011;44361;51.476;5.700;2023-05-07T01:29:31;24.20;;;15.32;;
58581;SDS011;44361;51.476;5.700;2023-05-07T01:31:56;24.77;;;14.98;;
58581;SDS011;44361;51.476;5.700;2023-05-07T01:34:24;25.52;;;15.68;;
58581;SDS011;44361;51.476;5.700;2023-05-07T01:36:52;22.15;;;14.25;;
58581;SDS011;44361;51.476;5.700;2023-05-07T01:39:18;28.15;;;16.52;;
58581;SDS011;44361;51.476;5.700;2023-05-07T01:41:44;22.42;;;14.68;;
58581;SDS011;44361;51.476;5.700;2023-05-07T01:44:10;26.63;;;17.15;;
58581;SDS011;44361;51.476;5.700;2023-05-07T01:46:38;29.05;;;17.40;;
58581;SDS011;44361;51.476;5.700;2023-05-07T01:49:03;23.63;;;16.55;;
58581;SDS011;44361;51.476;5.700;2023-05-07T01:51:29;26.83;;;17.63;;
58581;SDS011;44361;51.476;5.700;2023-05-07T01:53:56;27.73;;;17.88;;
58581;SDS011;44361;51.476;5.700;2023-05-07T01:56:23;29.27;;;18.83;;
58581;SDS011;44361;51.476;5.700;2023-05-07T01:58:49;28.42;;;18.73;;
58581;SDS011;44361;51.476;5.700;2023-05-07T02:01:16;28.13;;;17.92;;
58581;SDS011;44361;51.476;5.700;2023-05-07T02:03:43;29.80;;;18.73;;
58581;SDS011;44361;51.476;5.700;2023-05-07T02:06:08;26.50;;;17.88;;
58581;SDS011;44361;51.476;5.700;2023-05-07T02:08:34;30.13;;;19.50;;
58581;SDS011;44361;51.476;5.700;2023-05-07T02:10:59;30.90;;;19.10;;
58581;SDS011;44361;51.476;5.700;2023-05-07T02:13:26;31.88;;;19.67;;
58581;SDS011;44361;51.476;5.700;2023-05-07T02:15:57;29.80;;;20.08;;
58581;SDS011;44361;51.476;5.700;2023-05-07T02:18:22;30.40;;;20.45;;
58581;SDS011;44361;51.476;5.700;2023-05-07T02:20:48;31.85;;;19.80;;
58581;SDS011;44361;51.476;5.700;2023-05-07T02:23:13;30.80;;;19.92;;
58581;SDS011;44361;51.476;5.700;2023-05-07T02:25:39;31.83;;;20.92;;
58581;SDS011;44361;51.476;5.700;2023-05-07T02:28:04;35.47;;;20.88;;
58581;SDS011;44361;51.476;5.700;2023-05-07T02:30:30;36.00;;;20.08;;
58581;SDS011;44361;51.476;5.700;2023-05-07T02:32:56;32.15;;;21.17;;
58581;SDS011;44361;51.476;5.700;2023-05-07T02:35:21;32.72;;;21.33;;
58581;SDS011;44361;51.476;5.700;2023-05-07T02:37:48;32.22;;;19.58;;
58581;SDS011;44361;51.476;5.700;2023-05-07T02:40:14;29.55;;;18.65;;
58581;SDS011;44361;51.476;5.700;2023-05-07T02:42:40;28.33;;;19.63;;
58581;SDS011;44361;51.476;5.700;2023-05-07T02:45:05;30.27;;;18.55;;
58581;SDS011;44361;51.476;5.700;2023-05-07T02:47:31;29.10;;;18.27;;
58581;SDS011;44361;51.476;5.700;2023-05-07T02:49:57;29.20;;;18.58;;
58581;SDS011;44361;51.476;5.700;2023-05-07T02:52:22;33.13;;;19.60;;
58581;SDS011;44361;51.476;5.700;2023-05-07T02:54:48;28.48;;;19.90;;
58581;SDS011;44361;51.476;5.700;2023-05-07T02:57:13;32.50;;;20.25;;
58581;SDS011;44361;51.476;5.700;2023-05-07T02:59:39;28.63;;;20.10;;
58581;SDS011;44361;51.476;5.700;2023-05-07T03:02:05;30.38;;;20.67;;
58581;SDS011;44361;51.476;5.700;2023-05-07T03:04:30;28.98;;;19.55;;
58581;SDS011;44361;51.476;5.700;2023-05-07T03:06:56;31.08;;;19.63;;
58581;SDS011;44361;51.476;5.700;2023-05-07T03:09:21;30.60;;;19.17;;
58581;SDS011;44361;51.476;5.700;2023-05-07T03:11:47;31.73;;;20.33;;
58581;SDS011;44361;51.476;5.700;2023-05-07T03:14:12;32.97;;;20.50;;
58581;SDS011;44361;51.476;5.700;2023-05-07T03:16:38;28.90;;;19.95;;
58581;SDS011;44361;51.476;5.700;2023-05-07T03:19:03;29.50;;;20.58;;
58581;SDS011;44361;51.476;5.700;2023-05-07T03:21:29;32.22;;;21.02;;
58581;SDS011;44361;51.476;5.700;2023-05-07T03:23:55;31.55;;;20.48;;
58581;SDS011;44361;51.476;5.700;2023-05-07T03:26:21;28.38;;;19.90;;
58581;SDS011;44361;51.476;5.700;2023-05-07T03:28:47;32.75;;;20.40;;
58581;SDS011;44361;51.476;5.700;2023-05-07T03:31:12;30.60;;;20.23;;
58581;SDS011;44361;51.476;5.700;2023-05-07T03:33:39;31.52;;;21.00;;
58581;SDS011;44361;51.476;5.700;2023-05-07T03:36:18;34.42;;;21.98;;
58581;SDS011;44361;51.476;5.700;2023-05-07T03:38:44;32.75;;;21.90;;
58581;SDS011;44361;51.476;5.700;2023-05-07T03:41:09;36.20;;;23.42;;
58581;SDS011;44361;51.476;5.700;2023-05-07T03:43:35;37.63;;;23.05;;
58581;SDS011;44361;51.476;5.700;2023-05-07T03:46:00;37.28;;;23.58;;
58581;SDS011;44361;51.476;5.700;2023-05-07T03:48:27;35.78;;;23.17;;
58581;SDS011;44361;51.476;5.700;2023-05-07T03:50:52;37.70;;;23.70;;
58581;SDS011;44361;51.476;5.700;2023-05-07T03:53:18;36.75;;;23.38;;
58581;SDS011;44361;51.476;5.700;2023-05-07T03:55:43;40.25;;;24.38;;
58581;SDS011;44361;51.476;5.700;2023-05-07T03:58:09;36.15;;;23.67;;
58581;SDS011;44361;51.476;5.700;2023-05-07T04:00:34;37.80;;;24.50;;
58581;SDS011;44361;51.476;5.700;2023-05-07T04:03:03;36.53;;;24.52;;
58581;SDS011;44361;51.476;5.700;2023-05-07T04:05:29;40.97;;;24.20;;
58581;SDS011;44361;51.476;5.700;2023-05-07T04:07:55;36.95;;;24.63;;
58581;SDS011;44361;51.476;5.700;2023-05-07T04:10:22;43.38;;;24.75;;
58581;SDS011;44361;51.476;5.700;2023-05-07T04:12:48;43.63;;;25.90;;
58581;SDS011;44361;51.476;5.700;2023-05-07T04:15:13;35.55;;;25.15;;
58581;SDS011;44361;51.476;5.700;2023-05-07T04:17:39;40.08;;;24.38;;
58581;SDS011;44361;51.476;5.700;2023-05-07T04:20:06;41.53;;;24.55;;
58581;SDS011;44361;51.476;5.700;2023-05-07T04:22:35;43.72;;;24.85;;
58581;SDS011;44361;51.476;5.700;2023-05-07T04:25:01;37.28;;;24.17;;
58581;SDS011;44361;51.476;5.700;2023-05-07T04:27:27;39.05;;;24.20;;
58581;SDS011;44361;51.476;5.700;2023-05-07T04:29:53;38.13;;;23.05;;
58581;SDS011;44361;51.476;5.700;2023-05-07T04:32:21;35.50;;;23.10;;
58581;SDS011;44361;51.476;5.700;2023-05-07T04:34:47;41.20;;;23.25;;
58581;SDS011;44361;51.476;5.700;2023-05-07T04:37:12;40.10;;;23.65;;
58581;SDS011;44361;51.476;5.700;2023-05-07T04:39:38;35.75;;;24.23;;
58581;SDS011;44361;51.476;5.700;2023-05-07T04:42:03;35.95;;;22.90;;
58581;SDS011;44361;51.476;5.700;2023-05-07T04:44:29;37.15;;;23.55;;
58581;SDS011;44361;51.476;5.700;2023-05-07T04:46:56;36.90;;;22.55;;
58581;SDS011;44361;51.476;5.700;2023-05-07T04:49:22;36.88;;;22.48;;
58581;SDS011;44361;51.476;5.700;2023-05-07T04:51:47;36.83;;;22.80;;
58581;SDS011;44361;51.476;5.700;2023-05-07T04:54:13;37.88;;;23.17;;
58581;SDS011;44361;51.476;5.700;2023-05-07T04:56:38;33.15;;;22.15;;
58581;SDS011;44361;51.476;5.700;2023-05-07T04:59:04;37.70;;;22.20;;
58581;SDS011;44361;51.476;5.700;2023-05-07T05:01:30;34.05;;;21.73;;
58581;SDS011;44361;51.476;5.700;2023-05-07T05:03:56;37.08;;;21.83;;
58581;SDS011;44361;51.476;5.700;2023-05-07T05:06:21;31.10;;;21.15;;
58581;SDS011;44361;51.476;5.700;2023-05-07T05:08:47;30.73;;;20.15;;
58581;SDS011;44361;51.476;5.700;2023-05-07T05:11:12;32.63;;;21.35;;
58581;SDS011;44361;51.476;5.700;2023-05-07T05:13:38;30.10;;;19.58;;
58581;SDS011;44361;51.476;5.700;2023-05-07T05:16:03;30.98;;;20.33;;
58581;SDS011;44361;51.476;5.700;2023-05-07T05:18:29;30.23;;;18.77;;
58581;SDS011;44361;51.476;5.700;2023-05-07T05:20:55;28.65;;;18.33;;
58581;SDS011;44361;51.476;5.700;2023-05-07T05:23:20;28.60;;;17.50;;
58581;SDS011;44361;51.476;5.700;2023-05-07T05:25:46;25.08;;;17.67;;
58581;SDS011;44361;51.476;5.700;2023-05-07T05:28:11;26.52;;;17.27;;
58581;SDS011;44361;51.476;5.700;2023-05-07T05:30:37;23.90;;;17.55;;
58581;SDS011;44361;51.476;5.700;2023-05-07T05:33:03;23.33;;;16.73;;
58581;SDS011;44361;51.476;5.700;2023-05-07T05:35:29;24.80;;;17.63;;
58581;SDS011;44361;51.476;5.700;2023-05-07T05:37:55;25.70;;;17.35;;
58581;SDS011;44361;51.476;5.700;2023-05-07T05:40:21;25.58;;;17.80;;
58581;SDS011;44361;51.476;5.700;2023-05-07T05:42:46;30.60;;;17.80;;
58581;SDS011;44361;51.476;5.700;2023-05-07T05:45:12;26.48;;;17.13;;
58581;SDS011;44361;51.476;5.700;2023-05-07T05:47:37;28.92;;;17.65;;
58581;SDS011;44361;51.476;5.700;2023-05-07T05:50:04;25.35;;;16.27;;
58581;SDS011;44361;51.476;5.700;2023-05-07T05:52:31;21.50;;;16.60;;
58581;SDS011;44361;51.476;5.700;2023-05-07T05:54:56;22.55;;;15.25;;
58581;SDS011;44361;51.476;5.700;2023-05-07T05:57:22;22.08;;;15.02;;
58581;SDS011;44361;51.476;5.700;2023-05-07T05:59:47;20.92;;;15.60;;
58581;SDS011;44361;51.476;5.700;2023-05-07T06:02:13;19.83;;;14.32;;
58581;SDS011;44361;51.476;5.700;2023-05-07T06:04:39;21.50;;;15.70;;
58581;SDS011;44361;51.476;5.700;2023-05-07T06:07:04;22.77;;;15.55;;
58581;SDS011;44361;51.476;5.700;2023-05-07T06:09:30;23.13;;;15.48;;
58581;SDS011;44361;51.476;5.700;2023-05-07T06:11:56;19.17;;;13.65;;
58581;SDS011;44361;51.476;5.700;2023-05-07T06:14:21;20.63;;;14.00;;
58581;SDS011;44361;51.476;5.700;2023-05-07T06:16:47;19.85;;;14.25;;
58581;SDS011;44361;51.476;5.700;2023-05-07T06:19:12;20.10;;;13.85;;
58581;SDS011;44361;51.476;5.700;2023-05-07T06:21:38;17.95;;;13.00;;
58581;SDS011;44361;51.476;5.700;2023-05-07T06:24:05;18.23;;;13.20;;
58581;SDS011;44361;51.476;5.700;2023-05-07T06:26:30;17.60;;;13.02;;
58581;SDS011;44361;51.476;5.700;2023-05-07T06:28:56;18.38;;;12.80;;
58581;SDS011;44361;51.476;5.700;2023-05-07T06:31:21;18.38;;;11.73;;
58581;SDS011;44361;51.476;5.700;2023-05-07T06:33:48;18.40;;;12.52;;
58581;SDS011;44361;51.476;5.700;2023-05-07T06:36:14;20.90;;;12.25;;
58581;SDS011;44361;51.476;5.700;2023-05-07T06:38:39;16.33;;;11.32;;
58581;SDS011;44361;51.476;5.700;2023-05-07T06:41:05;16.70;;;11.18;;
58581;SDS011;44361;51.476;5.700;2023-05-07T06:43:31;14.98;;;11.18;;
58581;SDS011;44361;51.476;5.700;2023-05-07T06:45:57;14.55;;;11.32;;
58581;SDS011;44361;51.476;5.700;2023-05-07T06:48:22;14.20;;;11.27;;
58581;SDS011;44361;51.476;5.700;2023-05-07T06:50:48;17.20;;;11.05;;
58581;SDS011;44361;51.476;5.700;2023-05-07T06:53:13;17.60;;;11.75;;
58581;SDS011;44361;51.476;5.700;2023-05-07T06:55:39;13.85;;;11.10;;
58581;SDS011;44361;51.476;5.700;2023-05-07T06:58:05;14.88;;;11.65;;
58581;SDS011;44361;51.476;5.700;2023-05-07T07:00:31;14.85;;;11.20;;
58581;SDS011;44361;51.476;5.700;2023-05-07T07:02:56;13.68;;;11.60;;
58581;SDS011;44361;51.476;5.700;2023-05-07T07:05:22;16.13;;;12.13;;
58581;SDS011;44361;51.476;5.700;2023-05-07T07:07:48;17.77;;;12.05;;
58581;SDS011;44361;51.476;5.700;2023-05-07T07:10:18;16.42;;;11.00;;
58581;SDS011;44361;51.476;5.700;2023-05-07T07:12:44;14.30;;;10.65;;
58581;SDS011;44361;51.476;5.700;2023-05-07T07:15:10;12.25;;;10.18;;
58581;SDS011;44361;51.476;5.700;2023-05-07T07:17:36;16.15;;;11.95;;
58581;SDS011;44361;51.476;5.700;2023-05-07T07:20:01;15.23;;;10.57;;
58581;SDS011;44361;51.476;5.700;2023-05-07T07:22:27;14.27;;;10.15;;
58581;SDS011;44361;51.476;5.700;2023-05-07T07:24:53;15.40;;;10.25;;
58581;SDS011;44361;51.476;5.700;2023-05-07T07:27:19;21.35;;;9.95;;
58581;SDS011;44361;51.476;5.700;2023-05-07T07:29:44;11.23;;;8.75;;
58581;SDS011;44361;51.476;5.700;2023-05-07T07:32:10;13.55;;;8.88;;
58581;SDS011;44361;51.476;5.700;2023-05-07T07:34:35;12.15;;;9.73;;
58581;SDS011;44361;51.476;5.700;2023-05-07T07:37:01;12.48;;;8.77;;
58581;SDS011;44361;51.476;5.700;2023-05-07T07:39:30;15.05;;;9.80;;
58581;SDS011;44361;51.476;5.700;2023-05-07T07:41:56;14.02;;;9.23;;
58581;SDS011;44361;51.476;5.700;2023-05-07T07:44:21;12.40;;;8.63;;
58581;SDS011;44361;51.476;5.700;2023-05-07T07:46:47;12.07;;;9.02;;
58581;SDS011;44361;51.476;5.700;2023-05-07T07:49:12;15.88;;;9.68;;
58581;SDS011;44361;51.476;5.700;2023-05-07T07:51:39;14.30;;;10.18;;
58581;SDS011;44361;51.476;5.700;2023-05-07T07:54:04;13.40;;;9.40;;
58581;SDS011;44361;51.476;5.700;2023-05-07T07:56:31;12.73;;;9.50;;
58581;SDS011;44361;51.476;5.700;2023-05-07T07:58:58;13.75;;;9.07;;
58581;SDS011;44361;51.476;5.700;2023-05-07T08:01:24;12.68;;;9.27;;
58581;SDS011;44361;51.476;5.700;2023-05-07T08:03:49;13.15;;;9.70;;
58581;SDS011;44361;51.476;5.700;2023-05-07T08:06:15;14.32;;;9.82;;
58581;SDS011;44361;51.476;5.700;2023-05-07T08:08:40;12.25;;;8.57;;
58581;SDS011;44361;51.476;5.700;2023-05-07T08:11:06;13.45;;;9.77;;
58581;SDS011;44361;51.476;5.700;2023-05-07T08:13:32;11.70;;;8.88;;
58581;SDS011;44361;51.476;5.700;2023-05-07T08:15:57;11.50;;;8.57;;
58581;SDS011;44361;51.476;5.700;2023-05-07T08:18:23;12.88;;;8.68;;
58581;SDS011;44361;51.476;5.700;2023-05-07T08:20:50;12.48;;;9.52;;
58581;SDS011;44361;51.476;5.700;2023-05-07T08:23:16;15.15;;;9.60;;
58581;SDS011;44361;51.476;5.700;2023-05-07T08:25:41;13.30;;;9.43;;
58581;SDS011;44361;51.476;5.700;2023-05-07T08:28:07;16.02;;;9.50;;
58581;SDS011;44361;51.476;5.700;2023-05-07T08:30:33;13.10;;;9.32;;
58581;SDS011;44361;51.476;5.700;2023-05-07T08:32:59;14.98;;;10.02;;
58581;SDS011;44361;51.476;5.700;2023-05-07T08:35:25;15.23;;;10.60;;
58581;SDS011;44361;51.476;5.700;2023-05-07T08:37:52;11.98;;;9.40;;
58581;SDS011;44361;51.476;5.700;2023-05-07T08:40:17;12.80;;;9.88;;
58581;SDS011;44361;51.476;5.700;2023-05-07T08:42:43;11.90;;;9.60;;
58581;SDS011;44361;51.476;5.700;2023-05-07T08:45:09;13.23;;;9.85;;
58581;SDS011;44361;51.476;5.700;2023-05-07T08:48:10;12.48;;;10.25;;
58581;SDS011;44361;51.476;5.700;2023-05-07T08:50:30;13.05;;;9.10;;
58581;SDS011;44361;51.476;5.700;2023-05-07T08:52:56;11.63;;;9.30;;
58581;SDS011;44361;51.476;5.700;2023-05-07T08:55:22;11.70;;;9.45;;
58581;SDS011;44361;51.476;5.700;2023-05-07T08:57:48;12.38;;;8.85;;
58581;SDS011;44361;51.476;5.700;2023-05-07T09:00:17;11.80;;;8.43;;
58581;SDS011;44361;51.476;5.700;2023-05-07T09:02:43;12.05;;;8.82;;
58581;SDS011;44361;51.476;5.700;2023-05-07T09:05:08;11.85;;;7.95;;
58581;SDS011;44361;51.476;5.700;2023-05-07T09:07:34;12.07;;;8.52;;
58581;SDS011;44361;51.476;5.700;2023-05-07T09:10:03;12.70;;;8.32;;
58581;SDS011;44361;51.476;5.700;2023-05-07T09:12:29;10.15;;;8.07;;
58581;SDS011;44361;51.476;5.700;2023-05-07T09:14:55;10.02;;;8.02;;
58581;SDS011;44361;51.476;5.700;2023-05-07T09:17:21;11.50;;;7.90;;
58581;SDS011;44361;51.476;5.700;2023-05-07T09:19:47;10.45;;;8.30;;
58581;SDS011;44361;51.476;5.700;2023-05-07T09:22:12;11.07;;;7.57;;
58581;SDS011;44361;51.476;5.700;2023-05-07T09:24:38;11.02;;;8.27;;
58581;SDS011;44361;51.476;5.700;2023-05-07T09:27:04;11.88;;;8.60;;
58581;SDS011;44361;51.476;5.700;2023-05-07T09:29:31;12.27;;;8.70;;
58581;SDS011;44361;51.476;5.700;2023-05-07T09:32:02;13.60;;;8.90;;
58581;SDS011;44361;51.476;5.700;2023-05-07T09:34:32;13.20;;;9.68;;
58581;SDS011;44361;51.476;5.700;2023-05-07T09:36:59;12.35;;;9.43;;
58581;SDS011;44361;51.476;5.700;2023-05-07T09:39:26;12.93;;;8.93;;
58581;SDS011;44361;51.476;5.700;2023-05-07T09:42:03;10.38;;;8.48;;
58581;SDS011;44361;51.476;5.700;2023-05-07T09:44:28;13.05;;;8.52;;
58581;SDS011;44361;51.476;5.700;2023-05-07T09:46:56;10.63;;;8.02;;
58581;SDS011;44361;51.476;5.700;2023-05-07T09:49:24;11.23;;;7.80;;
58581;SDS011;44361;51.476;5.700;2023-05-07T09:51:54;12.95;;;8.48;;
58581;SDS011;44361;51.476;5.700;2023-05-07T09:54:21;10.02;;;7.47;;
58581;SDS011;44361;51.476;5.700;2023-05-07T09:56:51;12.93;;;8.07;;
58581;SDS011;44361;51.476;5.700;2023-05-07T09:59:17;14.55;;;8.77;;
58581;SDS011;44361;51.476;5.700;2023-05-07T10:01:45;11.48;;;8.23;;
58581;SDS011;44361;51.476;5.700;2023-05-07T10:04:11;9.90;;;8.20;;
58581;SDS011;44361;51.476;5.700;2023-05-07T10:06:37;9.73;;;7.97;;
58581;SDS011;44361;51.476;5.700;2023-05-07T10:09:03;10.98;;;8.02;;
58581;SDS011;44361;51.476;5.700;2023-05-07T10:11:33;11.60;;;7.90;;
58581;SDS011;44361;51.476;5.700;2023-05-07T10:13:59;11.80;;;7.97;;
58581;SDS011;44361;51.476;5.700;2023-05-07T10:16:31;11.77;;;7.60;;
58581;SDS011;44361;51.476;5.700;2023-05-07T10:19:03;7.95;;;6.40;;
58581;SDS011;44361;51.476;5.700;2023-05-07T10:21:29;9.77;;;7.40;;
58581;SDS011;44361;51.476;5.700;2023-05-07T10:24:01;7.70;;;5.88;;
58581;SDS011;44361;51.476;5.700;2023-05-07T10:26:35;6.75;;;4.85;;
58581;SDS011;44361;51.476;5.700;2023-05-07T10:29:03;10.95;;;7.28;;
58581;SDS011;44361;51.476;5.700;2023-05-07T10:34:07;10.65;;;5.68;;
58581;SDS011;44361;51.476;5.700;2023-05-07T10:36:36;5.47;;;3.80;;
58581;SDS011;44361;51.476;5.700;2023-05-07T10:39:02;5.18;;;3.42;;
58581;SDS011;44361;51.476;5.700;2023-05-07T10:41:29;8.85;;;5.22;;
58581;SDS011;44361;51.476;5.700;2023-05-07T10:43:55;10.45;;;5.47;;
58581;SDS011;44361;51.476;5.700;2023-05-07T10:46:22;7.60;;;4.82;;
58581;SDS011;44361;51.476;5.700;2023-05-07T10:51:25;6.38;;;4.07;;
58581;SDS011;44361;51.476;5.700;2023-05-07T10:56:39;6.03;;;4.47;;
58581;SDS011;44361;51.476;5.700;2023-05-07T10:59:30;9.43;;;4.65;;
58581;SDS011;44361;51.476;5.700;2023-05-07T11:01:57;7.53;;;4.25;;
58581;SDS011;44361;51.476;5.700;2023-05-07T11:04:24;7.95;;;4.50;;
58581;SDS011;44361;51.476;5.700;2023-05-07T11:15:02;5.15;;;3.45;;
58581;SDS011;44361;51.476;5.700;2023-05-07T11:17:32;6.13;;;4.68;;
58581;SDS011;44361;51.476;5.700;2023-05-07T11:19:59;7.20;;;4.57;;
58581;SDS011;44361;51.476;5.700;2023-05-07T11:25:00;6.72;;;4.45;;
58581;SDS011;44361;51.476;5.700;2023-05-07T11:27:26;6.60;;;4.47;;
58581;SDS011;44361;51.476;5.700;2023-05-07T11:29:52;9.07;;;5.07;;
58581;SDS011;44361;51.476;5.700;2023-05-07T11:32:30;7.03;;;5.05;;
58581;SDS011;44361;51.476;5.700;2023-05-07T11:34:57;7.53;;;4.60;;
58581;SDS011;44361;51.476;5.700;2023-05-07T11:37:25;5.50;;;4.10;;
58581;SDS011;44361;51.476;5.700;2023-05-07T11:40:01;7.20;;;4.05;;
58581;SDS011;44361;51.476;5.700;2023-05-07T11:42:29;6.50;;;3.67;;
58581;SDS011;44361;51.476;5.700;2023-05-07T11:45:00;6.47;;;3.25;;
58581;SDS011;44361;51.476;5.700;2023-05-07T11:47:26;12.30;;;3.75;;
58581;SDS011;44361;51.476;5.700;2023-05-07T11:49:55;8.40;;;3.78;;
58581;SDS011;44361;51.476;5.700;2023-05-07T11:52:21;6.50;;;3.08;;
58581;SDS011;44361;51.476;5.700;2023-05-07T11:54:52;9.00;;;4.20;;
58581;SDS011;44361;51.476;5.700;2023-05-07T11:57:22;4.32;;;3.03;;
58581;SDS011;44361;51.476;5.700;2023-05-07T12:02:21;9.27;;;3.75;;
58581;SDS011;44361;51.476;5.700;2023-05-07T12:04:46;4.03;;;2.90;;
58581;SDS011;44361;51.476;5.700;2023-05-07T12:07:12;6.95;;;3.15;;
58581;SDS011;44361;51.476;5.700;2023-05-07T12:09:39;4.88;;;2.72;;
58581;SDS011;44361;51.476;5.700;2023-05-07T12:12:06;5.72;;;3.08;;
58581;SDS011;44361;51.476;5.700;2023-05-07T12:14:31;6.63;;;3.95;;
58581;SDS011;44361;51.476;5.700;2023-05-07T12:16:57;8.45;;;4.15;;
58581;SDS011;44361;51.476;5.700;2023-05-07T12:19:28;8.27;;;4.30;;
58581;SDS011;44361;51.476;5.700;2023-05-07T12:21:54;6.28;;;3.70;;
58581;SDS011;44361;51.476;5.700;2023-05-07T12:24:21;7.13;;;3.13;;
58581;SDS011;44361;51.476;5.700;2023-05-07T12:26:46;6.60;;;3.30;;
58581;SDS011;44361;51.476;5.700;2023-05-07T12:29:13;5.78;;;2.80;;
58581;SDS011;44361;51.476;5.700;2023-05-07T12:31:42;3.55;;;2.38;;
58581;SDS011;44361;51.476;5.700;2023-05-07T12:34:08;4.40;;;2.47;;
58581;SDS011;44361;51.476;5.700;2023-05-07T12:36:39;6.75;;;2.78;;
58581;SDS011;44361;51.476;5.700;2023-05-07T12:39:06;7.22;;;2.92;;
58581;SDS011;44361;51.476;5.700;2023-05-07T12:41:35;7.63;;;3.22;;
58581;SDS011;44361;51.476;5.700;2023-05-07T12:44:17;5.13;;;3.25;;
58581;SDS011;44361;51.476;5.700;2023-05-07T12:46:42;7.53;;;3.50;;
58581;SDS011;44361;51.476;5.700;2023-05-07T12:49:08;7.70;;;3.05;;
58581;SDS011;44361;51.476;5.700;2023-05-07T12:51:34;6.05;;;3.30;;
58581;SDS011;44361;51.476;5.700;2023-05-07T12:54:00;5.55;;;3.20;;
58581;SDS011;44361;51.476;5.700;2023-05-07T12:56:26;6.43;;;3.47;;
58581;SDS011;44361;51.476;5.700;2023-05-07T12:58:51;10.55;;;3.83;;
58581;SDS011;44361;51.476;5.700;2023-05-07T13:01:28;7.82;;;3.55;;
58581;SDS011;44361;51.476;5.700;2023-05-07T13:03:55;5.88;;;3.65;;
58581;SDS011;44361;51.476;5.700;2023-05-07T13:06:20;3.25;;;2.55;;
58581;SDS011;44361;51.476;5.700;2023-05-07T13:08:46;4.50;;;2.50;;
58581;SDS011;44361;51.476;5.700;2023-05-07T13:11:12;4.80;;;2.00;;
58581;SDS011;44361;51.476;5.700;2023-05-07T13:13:38;3.35;;;1.92;;
58581;SDS011;44361;51.476;5.700;2023-05-07T13:16:05;3.22;;;1.70;;
58581;SDS011;44361;51.476;5.700;2023-05-07T13:18:33;8.77;;;2.63;;
58581;SDS011;44361;51.476;5.700;2023-05-07T13:20:59;4.90;;;2.20;;
58581;SDS011;44361;51.476;5.700;2023-05-07T13:23:25;6.15;;;4.00;;
58581;SDS011;44361;51.476;5.700;2023-05-07T13:25:51;5.68;;;3.60;;
58581;SDS011;44361;51.476;5.700;2023-05-07T13:28:20;6.13;;;2.50;;
58581;SDS011;44361;51.476;5.700;2023-05-07T13:30:46;3.65;;;2.15;;
58581;SDS011;44361;51.476;5.700;2023-05-07T13:33:12;4.60;;;2.42;;
58581;SDS011;44361;51.476;5.700;2023-05-07T13:35:38;8.95;;;2.60;;
58581;SDS011;44361;51.476;5.700;2023-05-07T13:38:04;5.47;;;2.67;;
58581;SDS011;44361;51.476;5.700;2023-05-07T13:40:30;7.05;;;3.28;;
58581;SDS011;44361;51.476;5.700;2023-05-07T13:42:59;5.10;;;2.55;;
58581;SDS011;44361;51.476;5.700;2023-05-07T13:45:27;4.18;;;3.50;;
58581;SDS011;44361;51.476;5.700;2023-05-07T13:47:54;5.05;;;3.25;;
58581;SDS011;44361;51.476;5.700;2023-05-07T13:50:20;10.63;;;4.03;;
58581;SDS011;44361;51.476;5.700;2023-05-07T13:52:45;7.97;;;3.47;;
58581;SDS011;44361;51.476;5.700;2023-05-07T13:55:15;8.23;;;4.18;;
58581;SDS011;44361;51.476;5.700;2023-05-07T13:57:45;6.90;;;3.28;;
58581;SDS011;44361;51.476;5.700;2023-05-07T14:00:11;7.32;;;3.90;;
58581;SDS011;44361;51.476;5.700;2023-05-07T14:02:38;7.43;;;4.10;;
58581;SDS011;44361;51.476;5.700;2023-05-07T14:05:03;7.72;;;4.88;;
58581;SDS011;44361;51.476;5.700;2023-05-07T14:07:29;8.73;;;4.95;;
58581;SDS011;44361;51.476;5.700;2023-05-07T14:09:56;8.70;;;4.90;;
58581;SDS011;44361;51.476;5.700;2023-05-07T14:12:21;9.25;;;5.22;;
58581;SDS011;44361;51.476;5.700;2023-05-07T14:14:47;9.38;;;4.95;;
58581;SDS011;44361;51.476;5.700;2023-05-07T14:17:14;12.07;;;6.60;;
58581;SDS011;44361;51.476;5.700;2023-05-07T14:19:41;9.80;;;5.65;;
58581;SDS011;44361;51.476;5.700;2023-05-07T14:22:07;10.60;;;5.60;;
58581;SDS011;44361;51.476;5.700;2023-05-07T14:24:33;11.45;;;5.63;;
58581;SDS011;44361;51.476;5.700;2023-05-07T14:26:59;12.45;;;5.45;;
58581;SDS011;44361;51.476;5.700;2023-05-07T14:29:24;8.35;;;5.05;;
58581;SDS011;44361;51.476;5.700;2023-05-07T14:31:50;7.50;;;5.45;;
58581;SDS011;44361;51.476;5.700;2023-05-07T14:34:16;8.68;;;5.15;;
58581;SDS011;44361;51.476;5.700;2023-05-07T14:36:41;10.38;;;4.82;;
58581;SDS011;44361;51.476;5.700;2023-05-07T14:39:08;8.27;;;4.93;;
58581;SDS011;44361;51.476;5.700;2023-05-07T14:41:34;7.80;;;5.13;;
58581;SDS011;44361;51.476;5.700;2023-05-07T14:44:00;10.95;;;5.47;;
58581;SDS011;44361;51.476;5.700;2023-05-07T14:46:26;7.88;;;5.70;;
58581;SDS011;44361;51.476;5.700;2023-05-07T14:48:52;7.10;;;4.90;;